createdAt,value
2017-12-19T00:01:46.183Z,102855.17
2017-12-19T00:04:13.281Z,102856.47
2017-12-19T00:06:39.601Z,102847.66
2017-12-19T00:09:05.819Z,102853.41
2017-12-19T00:11:32.124Z,102856.48
2017-12-19T00:14:00.593Z,102871.84
2017-12-19T00:16:34.008Z,102882.34
2017-12-19T00:19:04.335Z,102884.99
2017-12-19T00:21:32.638Z,102887.64
2017-12-19T00:24:00.945Z,102886.31
2017-12-19T00:26:29.262Z,102891.56
2017-12-19T00:29:01.181Z,102891.13
2017-12-19T00:31:29.214Z,102900.74
2017-12-19T00:34:02.798Z,102895.04
2017-12-19T00:36:34.339Z,102894.62
2017-12-19T00:39:03.465Z,102902.91
2017-12-19T00:41:32.653Z,102906.00
2017-12-19T00:44:04.135Z,102897.23
2017-12-19T00:46:31.132Z,102892.38
2017-12-19T00:48:59.194Z,102884.53
2017-12-19T00:51:26.941Z,102891.94
2017-12-19T00:53:53.476Z,102888.88
2017-12-19T00:56:19.854Z,102887.57
2017-12-19T00:58:46.131Z,102880.14
2017-12-19T01:01:12.316Z,102881.91
2017-12-19T01:03:38.856Z,102878.36
2017-12-19T01:06:05.052Z,102872.68
2017-12-19T01:08:31.236Z,102878.35
2017-12-19T01:10:57.499Z,102884.49
2017-12-19T01:13:24.009Z,102896.74
2017-12-19T01:15:50.200Z,102892.39
2017-12-19T01:18:16.438Z,102890.18
2017-12-19T01:20:42.633Z,102894.98
2017-12-19T01:23:08.832Z,102907.23
2017-12-19T01:25:35.084Z,102909.87
2017-12-19T01:28:01.278Z,102901.13
2017-12-19T01:30:27.700Z,102908.15
2017-12-19T01:32:53.931Z,102914.21
2017-12-19T01:35:20.116Z,102912.45
2017-12-19T01:37:46.307Z,102911.60
2017-12-19T01:40:12.536Z,102910.23
2017-12-19T01:42:38.726Z,102920.35
2017-12-19T01:45:04.914Z,102915.09
2017-12-19T01:47:31.453Z,102918.63
2017-12-19T01:49:57.656Z,102923.00
2017-12-19T01:52:23.851Z,102920.38
2017-12-19T01:54:50.459Z,102914.71
2017-12-19T01:57:16.716Z,102920.38
2017-12-19T01:59:43.028Z,102920.38
2017-12-19T02:02:09.246Z,102914.27
2017-12-19T02:04:35.497Z,102921.73
2017-12-19T02:07:01.677Z,102930.92
2017-12-19T02:09:27.870Z,102930.45
2017-12-19T02:11:54.102Z,102938.75
2017-12-19T02:14:20.284Z,102944.02
2017-12-19T02:16:46.477Z,102940.08
2017-12-19T02:19:12.746Z,102931.78
2017-12-19T02:21:38.952Z,102935.70
2017-12-19T02:24:05.170Z,102933.95
2017-12-19T02:26:31.527Z,102925.21
2017-12-19T02:28:57.959Z,102923.03
2017-12-19T02:31:24.400Z,102918.66
2017-12-19T02:33:50.667Z,102922.16
2017-12-19T02:36:16.889Z,102925.64
2017-12-19T02:38:43.093Z,102928.72
2017-12-19T02:41:09.398Z,102928.70
2017-12-19T02:43:35.853Z,102937.91
2017-12-19T02:46:02.096Z,102934.39
2017-12-19T02:48:28.344Z,102928.70
2017-12-19T02:50:54.576Z,102929.10
2017-12-19T02:53:20.792Z,102932.20
2017-12-19T02:55:47.306Z,102936.59
2017-12-19T02:58:13.488Z,102943.16
2017-12-19T03:00:40.768Z,102953.23
2017-12-19T03:03:07.412Z,102969.00
2017-12-19T03:05:33.661Z,102965.05
2017-12-19T03:07:59.847Z,102952.35
2017-12-19T03:10:26.171Z,102942.73
2017-12-19T03:12:52.694Z,102946.25
2017-12-19T03:15:18.923Z,102943.62
2017-12-19T03:17:45.611Z,102946.27
2017-12-19T03:20:11.884Z,102935.77
2017-12-19T03:22:38.279Z,102934.02
2017-12-19T03:25:04.652Z,102944.50
2017-12-19T03:27:30.911Z,102946.22
2017-12-19T03:29:57.116Z,102946.68
2017-12-19T03:32:26.300Z,102944.50
2017-12-19T03:35:02.313Z,102943.20
2017-12-19T03:37:30.088Z,102944.05
2017-12-19T03:39:56.922Z,102942.72
2017-12-19T03:42:26.644Z,102949.29
2017-12-19T03:44:53.429Z,102944.50
2017-12-19T03:47:20.360Z,102937.95
2017-12-19T03:49:48.063Z,102941.42
2017-12-19T03:52:15.368Z,102944.06
2017-12-19T03:54:43.390Z,102940.99
2017-12-19T03:57:09.799Z,102944.06
2017-12-19T03:59:36.960Z,102933.11
2017-12-19T04:02:03.368Z,102933.55
2017-12-19T04:04:30.065Z,102937.95
2017-12-19T04:06:56.649Z,102948.87
2017-12-19T04:09:23.729Z,102944.03
2017-12-19T04:11:50.661Z,102951.47
2017-12-19T04:14:17.126Z,102947.09
2017-12-19T04:16:43.542Z,102952.35
2017-12-19T04:19:10.833Z,102970.31
2017-12-19T04:21:37.626Z,102968.58
2017-12-19T04:24:03.871Z,102971.63
2017-12-19T04:26:30.312Z,102973.40
2017-12-19T04:28:56.940Z,102980.41
2017-12-19T04:31:23.384Z,102976.02
2017-12-19T04:33:49.597Z,102974.71
2017-12-19T04:36:16.222Z,102962.01
2017-12-19T04:38:42.426Z,102970.32
2017-12-19T04:41:08.625Z,102967.25
2017-12-19T04:43:34.855Z,102973.38
2017-12-19T04:46:01.064Z,102974.71
2017-12-19T04:48:27.276Z,102979.09
2017-12-19T04:50:53.549Z,102977.33
2017-12-19T04:53:19.740Z,102980.82
2017-12-19T04:55:46.172Z,102971.16
2017-12-19T04:58:12.509Z,102976.03
2017-12-19T05:00:38.708Z,102975.58
2017-12-19T05:03:04.899Z,102975.58
2017-12-19T05:05:31.161Z,102972.91
2017-12-19T05:07:57.340Z,102982.56
2017-12-19T05:10:23.552Z,102979.55
2017-12-19T05:12:49.815Z,102974.77
2017-12-19T05:15:16.042Z,102979.56
2017-12-19T05:17:42.236Z,102975.17
2017-12-19T05:20:08.485Z,102969.03
2017-12-19T05:22:34.671Z,102979.52
2017-12-19T05:25:00.908Z,102974.77
2017-12-19T05:27:27.244Z,102973.02
2017-12-19T05:29:53.721Z,102975.19
2017-12-19T05:32:21.833Z,102976.96
2017-12-19T05:34:48.250Z,102975.25
2017-12-19T05:37:14.498Z,102980.95
2017-12-19T05:39:40.924Z,102980.57
2017-12-19T05:42:07.274Z,102981.43
2017-12-19T05:44:33.564Z,102979.25
2017-12-19T05:46:59.780Z,102981.82
2017-12-19T05:49:26.051Z,102982.66
2017-12-19T05:51:52.283Z,102987.52
2017-12-19T05:54:18.650Z,102984.88
2017-12-19T05:56:44.912Z,102989.23
2017-12-19T05:59:11.168Z,102987.45
2017-12-19T06:01:37.382Z,102984.84
2017-12-19T06:04:03.988Z,102988.34
2017-12-19T06:06:30.187Z,102974.33
2017-12-19T06:08:56.377Z,102983.52
2017-12-19T06:11:22.639Z,102982.23
2017-12-19T06:13:48.824Z,102983.97
2017-12-19T06:16:15.008Z,102982.64
2017-12-19T06:18:41.269Z,102983.08
2017-12-19T06:21:07.509Z,102979.58
2017-12-19T06:23:33.721Z,102993.58
2017-12-19T06:25:59.971Z,102989.63
2017-12-19T06:28:26.421Z,102994.01
2017-12-19T06:30:52.880Z,103001.42
2017-12-19T06:33:19.140Z,103004.05
2017-12-19T06:35:45.352Z,103011.05
2017-12-19T06:38:11.649Z,103008.41
2017-12-19T06:40:37.905Z,103006.25
2017-12-19T06:43:04.098Z,103003.17
2017-12-19T06:45:30.627Z,103000.11
2017-12-19T06:47:56.877Z,102997.47
2017-12-19T06:50:23.067Z,103002.30
2017-12-19T06:52:49.271Z,103001.40
2017-12-19T06:55:15.756Z,102999.69
2017-12-19T06:57:41.978Z,103007.14
2017-12-19T07:00:08.251Z,103006.30
2017-12-19T07:02:34.544Z,103006.80
2017-12-19T07:05:00.782Z,103008.16
2017-12-19T07:07:26.979Z,103012.94
2017-12-19T07:09:53.512Z,103005.45
2017-12-19T07:12:20.012Z,103010.27
2017-12-19T07:14:46.282Z,103012.94
2017-12-19T07:17:12.546Z,103011.67
2017-12-19T07:19:38.773Z,103012.09
2017-12-19T07:22:05.210Z,103008.09
2017-12-19T07:24:31.479Z,103009.41
2017-12-19T07:26:59.308Z,103011.12
2017-12-19T07:29:25.560Z,103010.69
2017-12-19T07:31:51.819Z,103015.50
2017-12-19T07:34:18.118Z,103023.38
2017-12-19T07:36:44.375Z,103025.56
2017-12-19T07:39:10.957Z,103024.68
2017-12-19T07:41:37.151Z,103022.06
2017-12-19T07:44:03.654Z,103020.30
2017-12-19T07:46:30.251Z,103031.68
2017-12-19T07:48:56.468Z,103033.42
2017-12-19T07:51:22.673Z,103031.24
2017-12-19T07:53:49.018Z,103034.72
2017-12-19T07:56:15.246Z,103038.23
2017-12-19T07:58:41.703Z,103042.59
2017-12-19T08:01:08.132Z,103046.11
2017-12-19T08:03:34.321Z,103045.27
2017-12-19T08:06:00.520Z,103051.41
2017-12-19T08:08:26.816Z,103047.86
2017-12-19T08:10:53.040Z,103053.11
2017-12-19T08:13:19.238Z,103052.70
2017-12-19T08:15:45.492Z,103053.15
2017-12-19T08:18:11.676Z,103062.01
2017-12-19T08:20:37.873Z,103060.70
2017-12-19T08:23:04.113Z,103063.34
2017-12-19T08:25:30.315Z,103070.34
2017-12-19T08:27:56.565Z,103076.03
2017-12-19T08:30:22.807Z,103078.67
2017-12-19T08:32:49.013Z,103079.11
2017-12-19T08:35:15.231Z,103075.62
2017-12-19T08:37:41.765Z,103077.82
2017-12-19T08:40:07.997Z,103080.01
2017-12-19T08:42:34.194Z,103086.12
2017-12-19T08:45:00.758Z,103091.35
2017-12-19T08:47:26.969Z,103092.26
2017-12-19T08:49:53.152Z,103101.48
2017-12-19T08:52:20.364Z,103092.27
2017-12-19T08:54:46.536Z,103094.45
2017-12-19T08:57:12.745Z,103101.42
2017-12-19T08:59:38.982Z,103107.55
2017-12-19T09:02:05.211Z,103115.86
2017-12-19T09:04:31.445Z,103118.94
2017-12-19T09:06:58.388Z,103125.06
2017-12-19T09:09:24.574Z,103126.38
2017-12-19T09:11:50.747Z,103126.85
2017-12-19T09:14:17.003Z,103132.13
2017-12-19T09:16:43.192Z,103138.28
2017-12-19T09:19:09.387Z,103139.59
2017-12-19T09:21:35.649Z,103145.34
2017-12-19T09:24:01.840Z,103151.04
2017-12-19T09:26:28.034Z,103149.72
2017-12-19T09:28:54.302Z,103156.78
2017-12-19T09:31:20.547Z,103148.42
2017-12-19T09:33:46.737Z,103150.18
2017-12-19T09:36:13.458Z,103152.81
2017-12-19T09:38:39.638Z,103154.98
2017-12-19T09:41:05.832Z,103152.34
2017-12-19T09:43:32.096Z,103154.53
2017-12-19T09:45:58.297Z,103147.95
2017-12-19T09:48:24.500Z,103151.02
2017-12-19T09:50:51.146Z,103149.30
2017-12-19T09:53:17.352Z,103150.61
2017-12-19T09:55:43.561Z,103148.42
2017-12-19T09:58:09.832Z,103149.33
2017-12-19T10:00:36.045Z,103145.41
2017-12-19T10:03:02.292Z,103136.67
2017-12-19T10:05:28.556Z,103136.25
2017-12-19T10:07:54.750Z,103138.04
2017-12-19T10:10:20.947Z,103138.48
2017-12-19T10:12:47.465Z,103131.06
2017-12-19T10:15:13.652Z,103131.96
2017-12-19T10:17:39.895Z,103133.72
2017-12-19T10:20:06.174Z,103130.23
2017-12-19T10:22:32.360Z,103138.13
2017-12-19T10:24:58.584Z,103131.97
2017-12-19T10:27:25.161Z,103139.00
2017-12-19T10:29:51.349Z,103139.84
2017-12-19T10:32:17.797Z,103138.09
2017-12-19T10:34:44.298Z,103133.27
2017-12-19T10:37:10.612Z,103131.04
2017-12-19T10:39:36.848Z,103130.16
2017-12-19T10:42:03.046Z,103122.33
2017-12-19T10:44:29.293Z,103124.06
2017-12-19T10:46:55.498Z,103119.23
2017-12-19T10:49:21.684Z,103122.33
2017-12-19T10:51:47.927Z,103120.55
2017-12-19T10:54:14.421Z,103117.50
2017-12-19T10:56:40.613Z,103116.66
2017-12-19T10:59:06.800Z,103116.19
2017-12-19T11:01:33.123Z,103120.05
2017-12-19T11:03:59.305Z,103114.37
2017-12-19T11:06:25.525Z,103114.80
2017-12-19T11:08:51.777Z,103113.09
2017-12-19T11:11:17.966Z,103119.67
2017-12-19T11:13:44.396Z,103117.48
2017-12-19T11:16:10.616Z,103123.17
2017-12-19T11:18:36.796Z,103122.32
2017-12-19T11:21:03.051Z,103116.20
2017-12-19T11:23:29.419Z,103117.55
2017-12-19T11:25:55.900Z,103111.02
2017-12-19T11:28:22.481Z,103112.39
2017-12-19T11:30:48.751Z,103107.97
2017-12-19T11:33:15.080Z,103102.28
2017-12-19T11:35:41.459Z,103110.61
2017-12-19T11:38:07.735Z,103108.88
2017-12-19T11:40:33.969Z,103110.67
2017-12-19T11:43:00.465Z,103107.17
2017-12-19T11:45:26.666Z,103106.74
2017-12-19T11:47:53.130Z,103103.22
2017-12-19T11:50:19.381Z,103096.66
2017-12-19T11:52:45.580Z,103100.15
2017-12-19T11:55:11.845Z,103098.39
2017-12-19T11:57:38.324Z,103095.77
2017-12-19T12:00:04.525Z,103096.22
2017-12-19T12:02:31.023Z,103096.66
2017-12-19T12:04:57.220Z,103097.53
2017-12-19T12:07:25.467Z,103090.52
2017-12-19T12:09:52.738Z,103091.84
2017-12-19T12:12:18.957Z,103083.50
2017-12-19T12:14:45.379Z,103083.52
2017-12-19T12:17:12.228Z,103079.59
2017-12-19T12:19:38.439Z,103083.13
2017-12-19T12:22:04.624Z,103086.23
2017-12-19T12:24:30.828Z,103081.44
2017-12-19T12:26:57.066Z,103078.34
2017-12-19T12:29:23.246Z,103076.60
2017-12-19T12:31:49.443Z,103080.09
2017-12-19T12:34:15.918Z,103077.89
2017-12-19T12:36:42.110Z,103076.55
2017-12-19T12:39:08.282Z,103073.48
2017-12-19T12:41:34.520Z,103066.88
2017-12-19T12:44:00.690Z,103069.06
2017-12-19T12:46:26.863Z,103060.74
2017-12-19T12:48:53.107Z,103060.28
2017-12-19T12:51:19.304Z,103062.47
2017-12-19T12:53:45.733Z,103063.78
2017-12-19T12:56:11.949Z,103065.95
2017-12-19T12:58:38.159Z,103062.04
2017-12-19T13:01:04.439Z,103058.53
2017-12-19T13:03:30.641Z,103061.13
2017-12-19T13:05:57.093Z,103058.53
2017-12-19T13:08:23.351Z,103054.13
2017-12-19T13:10:49.571Z,103060.27
2017-12-19T13:13:15.746Z,103056.34
2017-12-19T13:15:42.236Z,103057.23
2017-12-19T13:18:08.410Z,103055.09
2017-12-19T13:20:34.590Z,103051.16
2017-12-19T13:23:01.150Z,103051.13
2017-12-19T13:25:27.311Z,103048.95
2017-12-19T13:27:53.556Z,103052.08
2017-12-19T13:30:19.811Z,103053.41
2017-12-19T13:32:45.997Z,103052.12
2017-12-19T13:35:12.211Z,103051.67
2017-12-19T13:37:38.453Z,103049.45
2017-12-19T13:40:04.924Z,103054.28
2017-12-19T13:42:31.131Z,103055.16
2017-12-19T13:44:57.689Z,103054.28
2017-12-19T13:47:23.880Z,103050.80
2017-12-19T13:49:50.060Z,103057.38
2017-12-19T13:52:16.610Z,103056.52
2017-12-19T13:54:42.796Z,103066.19
2017-12-19T13:57:08.982Z,103071.48
2017-12-19T13:59:35.292Z,103074.58
2017-12-19T14:02:01.467Z,103070.20
2017-12-19T14:04:28.010Z,103077.64
2017-12-19T14:06:54.270Z,103077.19
2017-12-19T14:09:20.809Z,103078.94
2017-12-19T14:11:47.000Z,103074.58
2017-12-19T14:14:13.193Z,103074.13
2017-12-19T14:16:39.448Z,103074.12
2017-12-19T14:19:06.009Z,103082.41
2017-12-19T14:21:32.547Z,103088.13
2017-12-19T14:23:58.736Z,103087.68
2017-12-19T14:26:25.200Z,103096.39
2017-12-19T14:28:51.400Z,103095.52
2017-12-19T14:31:17.659Z,103100.31
2017-12-19T14:33:44.247Z,103101.62
2017-12-19T14:36:10.442Z,103102.94
2017-12-19T14:38:36.635Z,103099.88
2017-12-19T14:41:02.885Z,103098.13
2017-12-19T14:43:29.069Z,103097.69
2017-12-19T14:45:55.252Z,103098.13
2017-12-19T14:48:21.786Z,103098.14
2017-12-19T14:50:48.055Z,103096.38
2017-12-19T14:53:14.267Z,103097.67
2017-12-19T14:55:40.483Z,103098.11
2017-12-19T14:58:06.662Z,103095.91
2017-12-19T15:00:32.907Z,103098.96
2017-12-19T15:02:59.086Z,103094.58
2017-12-19T15:05:25.554Z,103107.73
2017-12-19T15:07:51.905Z,103113.00
2017-12-19T15:10:18.131Z,103110.35
2017-12-19T15:12:44.340Z,103107.28
2017-12-19T15:15:10.859Z,103100.70
2017-12-19T15:17:37.304Z,103102.85
2017-12-19T15:20:03.509Z,103097.59
2017-12-19T15:22:30.085Z,103104.61
2017-12-19T15:24:56.317Z,103097.59
2017-12-19T15:27:22.523Z,103094.09
2017-12-19T15:29:48.827Z,103095.86
2017-12-19T15:32:15.067Z,103086.66
2017-12-19T15:34:41.381Z,103087.09
2017-12-19T15:37:07.648Z,103088.84
2017-12-19T15:39:33.862Z,103095.42
2017-12-19T15:42:00.425Z,103094.97
2017-12-19T15:44:26.976Z,103092.79
2017-12-19T15:46:53.204Z,103086.66
2017-12-19T15:49:19.416Z,103087.55
2017-12-19T15:51:46.084Z,103091.48
2017-12-19T15:54:12.327Z,103100.25
2017-12-19T15:56:38.542Z,103089.27
2017-12-19T15:59:04.818Z,103080.50
2017-12-19T16:01:31.049Z,103076.14
2017-12-19T16:03:57.247Z,103072.20
2017-12-19T16:06:23.880Z,103065.63
2017-12-19T16:08:50.469Z,103069.12
2017-12-19T16:11:16.652Z,103073.51
2017-12-19T16:13:43.233Z,103069.59
2017-12-19T16:16:09.403Z,103066.08
2017-12-19T16:18:35.589Z,103067.37
2017-12-19T16:21:02.122Z,103073.53
2017-12-19T16:23:28.288Z,103073.09
2017-12-19T16:25:54.785Z,103080.09
2017-12-19T16:28:21.360Z,103076.59
2017-12-19T16:30:47.540Z,103081.84
2017-12-19T16:33:13.978Z,103071.31
2017-12-19T16:35:40.215Z,103078.80
2017-12-19T16:38:06.410Z,103075.27
2017-12-19T16:40:32.595Z,103074.39
2017-12-19T16:42:58.877Z,103073.08
2017-12-19T16:45:25.069Z,103070.91
2017-12-19T16:47:51.265Z,103076.60
2017-12-19T16:50:17.487Z,103076.58
2017-12-19T16:52:43.664Z,103083.15
2017-12-19T16:55:09.837Z,103077.90
2017-12-19T16:57:36.406Z,103090.63
2017-12-19T17:00:02.668Z,103085.79
2017-12-19T17:02:28.853Z,103083.16
2017-12-19T17:04:55.117Z,103081.81
2017-12-19T17:07:21.345Z,103075.69
2017-12-19T17:09:47.913Z,103083.16
2017-12-19T17:12:14.169Z,103087.98
2017-12-19T17:14:40.682Z,103088.86
2017-12-19T17:17:06.866Z,103086.70
2017-12-19T17:19:33.318Z,103094.56
2017-12-19T17:21:59.874Z,103091.51
2017-12-19T17:24:26.307Z,103095.45
2017-12-19T17:26:52.498Z,103091.95
2017-12-19T17:29:18.751Z,103089.33
2017-12-19T17:31:45.079Z,103094.11
2017-12-19T17:34:11.531Z,103089.72
2017-12-19T17:36:37.801Z,103084.91
2017-12-19T17:39:04.393Z,103088.41
2017-12-19T17:41:30.571Z,103089.72
2017-12-19T17:43:56.822Z,103087.98
2017-12-19T17:46:23.032Z,103084.94
2017-12-19T17:48:49.920Z,103085.34
2017-12-19T17:51:16.211Z,103072.24
2017-12-19T17:53:42.417Z,103070.05
2017-12-19T17:56:08.694Z,103083.21
2017-12-19T17:58:34.963Z,103080.14
2017-12-19T18:01:01.173Z,103084.08
2017-12-19T18:03:27.713Z,103096.73
2017-12-19T18:05:53.905Z,103099.83
2017-12-19T18:08:20.359Z,103097.22
2017-12-19T18:10:46.592Z,103093.26
2017-12-19T18:13:12.774Z,103099.86
2017-12-19T18:15:38.962Z,103097.22
2017-12-19T18:18:05.497Z,103093.72
2017-12-19T18:20:31.928Z,103097.20
2017-12-19T18:22:58.345Z,103094.58
2017-12-19T18:25:24.600Z,103089.77
2017-12-19T18:27:50.818Z,103089.30
2017-12-19T18:30:17.093Z,103092.38
2017-12-19T18:32:43.325Z,103089.78
2017-12-19T18:35:09.510Z,103092.88
2017-12-19T18:37:35.709Z,103102.58
2017-12-19T18:40:01.947Z,103096.02
2017-12-19T18:42:28.142Z,103099.08
2017-12-19T18:44:54.422Z,103094.70
2017-12-19T18:47:20.669Z,103089.42
2017-12-19T18:49:46.853Z,103081.53
2017-12-19T18:52:13.073Z,103088.99
2017-12-19T18:54:39.668Z,103089.44
2017-12-19T18:57:05.842Z,103087.67
2017-12-19T18:59:38.181Z,103090.75
2017-12-19T19:02:04.404Z,103090.31
2017-12-19T19:04:30.574Z,103096.00
2017-12-19T19:06:56.776Z,103095.11
2017-12-19T19:09:23.025Z,103098.14
2017-12-19T19:11:49.300Z,103098.64
2017-12-19T19:14:15.488Z,103103.45
2017-12-19T19:16:42.052Z,103099.94
2017-12-19T19:19:08.228Z,103099.51
2017-12-19T19:21:34.409Z,103096.88
2017-12-19T19:24:00.646Z,103093.80
2017-12-19T19:26:26.837Z,103092.95
2017-12-19T19:28:53.025Z,103089.84
2017-12-19T19:31:19.243Z,103087.63
2017-12-19T19:33:45.508Z,103089.38
2017-12-19T19:36:11.752Z,103090.27
2017-12-19T19:38:38.033Z,103095.50
2017-12-19T19:41:04.210Z,103087.19
2017-12-19T19:43:30.628Z,103092.86
2017-12-19T19:45:56.845Z,103087.61
2017-12-19T19:48:23.026Z,103083.22
2017-12-19T19:50:49.215Z,103088.91
2017-12-19T19:53:15.783Z,103094.17
2017-12-19T19:55:41.977Z,103096.80
2017-12-19T19:58:08.204Z,103091.09
2017-12-19T20:00:34.432Z,103094.61
2017-12-19T20:03:00.621Z,103084.55
2017-12-19T20:05:26.830Z,103082.37
2017-12-19T20:07:53.460Z,103079.73
2017-12-19T20:10:19.662Z,103080.61
2017-12-19T20:12:45.961Z,103085.00
2017-12-19T20:15:12.205Z,103084.52
2017-12-19T20:17:38.379Z,103070.07
2017-12-19T20:20:04.565Z,103072.70
2017-12-19T20:22:30.812Z,103070.51
2017-12-19T20:24:56.982Z,103073.13
2017-12-19T20:27:23.173Z,103067.45
2017-12-19T20:29:49.675Z,103072.69
2017-12-19T20:32:15.854Z,103077.52
2017-12-19T20:34:42.032Z,103074.87
2017-12-19T20:37:08.608Z,103073.57
2017-12-19T20:39:34.784Z,103074.45
2017-12-19T20:42:00.955Z,103070.06
2017-12-19T20:44:27.205Z,103077.52
2017-12-19T20:46:53.393Z,103079.27
2017-12-19T20:49:19.568Z,103095.03
2017-12-19T20:51:45.808Z,103099.00
2017-12-19T20:54:11.983Z,103101.19
2017-12-19T20:56:38.202Z,103092.00
2017-12-19T20:59:04.774Z,103092.00
2017-12-19T21:01:30.965Z,103093.29
2017-12-19T21:03:57.142Z,103093.75
2017-12-19T21:06:23.756Z,103093.27
2017-12-19T21:08:49.943Z,103095.06
2017-12-19T21:11:16.136Z,103093.31
2017-12-19T21:13:42.851Z,103091.55
2017-12-19T21:16:09.007Z,103097.25
2017-12-19T21:18:35.478Z,103097.67
2017-12-19T21:21:02.053Z,103102.05
2017-12-19T21:23:28.259Z,103109.49
2017-12-19T21:25:54.769Z,103102.92
2017-12-19T21:28:21.003Z,103101.63
2017-12-19T21:30:47.188Z,103106.47
2017-12-19T21:33:13.372Z,103105.62
2017-12-19T21:35:39.824Z,103105.16
2017-12-19T21:38:06.232Z,103108.68
2017-12-19T21:40:32.426Z,103109.09
2017-12-19T21:42:58.650Z,103119.15
2017-12-19T21:45:24.819Z,103116.94
2017-12-19T21:47:51.049Z,103118.25
2017-12-19T21:50:17.297Z,103120.89
2017-12-19T21:52:43.467Z,103130.12
2017-12-19T21:55:09.658Z,103120.06
2017-12-19T21:57:35.892Z,103115.65
2017-12-19T22:00:02.056Z,103116.95
2017-12-19T22:02:28.242Z,103119.13
2017-12-19T22:04:54.488Z,103116.09
2017-12-19T22:07:20.679Z,103113.89
2017-12-19T22:09:46.852Z,103120.94
2017-12-19T22:12:13.869Z,103118.83
2017-12-19T22:14:40.136Z,103116.63
2017-12-19T22:19:39.351Z,103113.54
2017-12-19T22:22:05.541Z,103108.66
2017-12-19T22:24:31.740Z,103106.95
2017-12-19T22:26:58.301Z,103115.30
2017-12-19T22:29:24.487Z,103109.63
2017-12-19T22:31:50.677Z,103114.44
2017-12-19T22:34:17.856Z,103117.50
2017-12-19T22:36:44.085Z,103119.69
2017-12-19T22:39:10.282Z,103121.45
2017-12-19T22:41:36.529Z,103124.09
2017-12-19T22:44:02.724Z,103128.02
2017-12-19T22:46:28.893Z,103118.32
2017-12-19T22:48:55.475Z,103123.20
2017-12-19T22:51:21.684Z,103127.56
2017-12-19T22:53:47.883Z,103124.52
2017-12-19T22:56:14.158Z,103129.77
2017-12-19T22:58:40.363Z,103129.34
2017-12-19T23:01:06.668Z,103123.19
2017-12-19T23:03:32.910Z,103121.47
2017-12-19T23:05:59.140Z,103119.32
2017-12-19T23:08:25.332Z,103123.69
2017-12-19T23:10:51.580Z,103120.59
2017-12-19T23:13:17.760Z,103122.35
2017-12-19T23:15:43.948Z,103120.62
2017-12-19T23:18:10.537Z,103124.13
2017-12-19T23:20:36.736Z,103118.85
2017-12-19T23:23:02.964Z,103120.59
2017-12-19T23:25:29.232Z,103114.92
2017-12-19T23:27:55.414Z,103121.52
2017-12-19T23:30:21.594Z,103121.09
2017-12-19T23:32:47.832Z,103121.95
2017-12-19T23:35:14.283Z,103118.02
2017-12-19T23:37:40.451Z,103122.39
2017-12-19T23:40:06.941Z,103122.84
2017-12-19T23:42:33.137Z,103118.44
2017-12-19T23:44:59.332Z,103118.86
2017-12-19T23:47:25.932Z,103120.19
2017-12-19T23:49:52.183Z,103112.75
2017-12-19T23:52:18.368Z,103110.95
2017-12-19T23:54:44.598Z,103108.77
2017-12-19T23:57:10.784Z,103103.07
2017-12-19T23:59:37.280Z,103105.28
